Time;durP1;ratioP1;P1;durP2;ratioP2;P2;SDS_P1;SDS_P2;PMS_P1;PMS_P2;Temp;Humidity;BMP_temperature;BMP_pressure;BME280_temperature;BME280_humidity;BME280_pressure;Samples;Min_cycle;Max_cycle;Signal;HPM_P1;HPM_P2
2022/07/09 00:01:50;;;;;;;9.05;3.13;;;;;;;-144.47;63.70;53364.59;4970112;28;20035;-66
2022/07/09 00:04:16;;;;;;;8.10;2.95;;;;;;;-144.47;63.73;53400.34;4983157;28;20034;-66
2022/07/09 00:06:41;;;;;;;12.77;3.40;;;;;;;-144.47;63.84;53416.22;4984267;28;20046;-67
2022/07/09 00:09:06;;;;;;;8.20;3.05;;;;;;;-144.47;63.80;53384.44;4976176;28;20133;-67
2022/07/09 00:11:32;;;;;;;8.38;2.83;;;;;;;-144.47;64.05;53336.78;4984443;28;20116;-66
2022/07/09 00:13:57;;;;;;;5.55;2.45;;;;;;;-144.47;64.25;53344.72;4975819;28;20050;-66
2022/07/09 00:16:23;;;;;;;8.63;3.33;;;;;;;-144.47;64.55;53348.69;4977170;28;20046;-66
2022/07/09 00:18:48;;;;;;;12.82;3.53;;;;;;;-144.47;64.84;53392.41;4977059;28;20042;-66
2022/07/09 00:21:13;;;;;;;13.25;3.05;;;;;;;-144.47;65.07;53386.44;4989734;28;20038;-66
2022/07/09 00:23:39;;;;;;;10.52;3.20;;;;;;;-144.47;65.20;53344.72;4975826;28;20023;-66
2022/07/09 00:26:04;;;;;;;7.20;2.70;;;;;;;-144.47;65.37;53404.31;4976721;28;20027;-66
2022/07/09 00:28:29;;;;;;;8.23;3.00;;;;;;;-144.47;65.46;53350.69;4976340;28;20118;-66
2022/07/09 00:30:55;;;;;;;11.27;3.33;;;;;;;-144.47;65.57;53382.47;4982979;28;20054;-65
2022/07/09 00:33:20;;;;;;;11.32;3.20;;;;;;;-144.47;65.53;53340.75;4970381;28;20573;-66
2022/07/09 00:35:45;;;;;;;15.55;3.83;;;;;;;-144.47;65.69;53332.81;4976408;28;20022;-66
2022/07/09 00:38:11;;;;;;;7.95;2.90;;;;;;;-144.47;65.74;53360.63;4976352;28;20042;-66
2022/07/09 00:40:36;;;;;;;9.75;3.38;;;;;;;-144.47;65.64;53374.50;4982820;28;20026;-66
2022/07/09 00:43:02;;;;;;;14.32;3.45;;;;;;;-144.47;65.72;53370.53;4970463;28;20097;-67
2022/07/09 00:45:27;;;;;;;13.20;3.17;;;;;;;-144.47;65.46;53344.72;4984044;28;20022;-66
2022/07/09 00:47:52;;;;;;;9.27;2.80;;;;;;;-144.47;65.04;53410.28;5000333;28;20019;-65
2022/07/09 00:50:18;;;;;;;10.23;3.28;;;;;;;-144.47;64.68;53400.34;4970766;28;20113;-66
2022/07/09 00:52:44;;;;;;;9.50;3.20;;;;;;;-144.47;64.47;53344.72;4978451;28;20104;-67
2022/07/09 00:55:11;;;;;;;14.20;3.00;;;;;;;-144.47;64.20;53352.66;4984165;28;20042;-67
2022/07/09 00:57:37;;;;;;;14.15;3.20;;;;;;;-144.47;64.23;53344.72;4980594;28;20026;-66
2022/07/09 01:00:03;;;;;;;14.85;3.72;;;;;;;-144.47;64.17;53392.41;4987761;28;20443;-66
2022/07/09 01:02:28;;;;;;;7.18;2.72;;;;;;;-144.47;64.27;53418.22;4973382;28;20082;-67
2022/07/09 01:04:54;;;;;;;6.60;2.67;;;;;;;-144.47;64.40;53336.78;4976719;28;20023;-69
2022/07/09 01:07:19;;;;;;;9.75;2.85;;;;;;;-144.47;64.64;53348.69;4984018;28;20105;-68
2022/07/09 01:09:46;;;;;;;7.97;2.22;;;;;;;-144.47;64.67;53362.59;4987738;28;20070;-67
2022/07/09 01:12:11;;;;;;;9.70;2.85;;;;;;;-144.47;64.67;53352.66;4985336;28;20619;-68
2022/07/09 01:14:37;;;;;;;7.75;2.78;;;;;;;-144.47;64.86;53380.47;4980164;28;20018;-68
2022/07/09 01:17:04;;;;;;;11.25;3.05;;;;;;;-144.47;64.99;53370.53;4981075;28;20488;-66
2022/07/09 01:19:30;;;;;;;10.82;2.95;;;;;;;-144.47;65.36;53368.56;4986716;28;20026;-67
2022/07/09 01:21:56;;;;;;;11.30;3.17;;;;;;;-144.47;65.45;53390.41;4983557;28;20030;-67
2022/07/09 01:24:23;;;;;;;10.55;3.03;;;;;;;-144.47;65.36;53342.72;4980240;28;20029;-66
2022/07/09 01:26:49;;;;;;;7.03;2.90;;;;;;;-144.47;65.57;53332.81;4977189;28;20512;-68
2022/07/09 01:29:14;;;;;;;8.13;3.60;;;;;;;-144.47;65.59;53398.34;4973124;28;20057;-66
2022/07/09 01:31:40;;;;;;;11.05;2.97;;;;;;;-144.47;65.93;53352.66;4985430;28;20026;-66
2022/07/09 01:34:05;;;;;;;19.95;4.05;;;;;;;-144.47;66.12;53338.75;4973812;28;20049;-67
2022/07/09 01:36:30;;;;;;;9.00;3.10;;;;;;;-144.47;66.24;53336.78;4982883;28;20170;-64
2022/07/09 01:38:56;;;;;;;7.25;3.10;;;;;;;-144.47;66.16;53376.50;4991714;28;20069;-66
2022/07/09 01:41:21;;;;;;;14.90;3.72;;;;;;;-144.47;65.95;53390.41;4980686;28;20038;-68
2022/07/09 01:43:46;;;;;;;12.98;4.35;;;;;;;-144.47;65.60;53356.63;4973038;28;20162;-66
2022/07/09 01:46:12;;;;;;;12.10;3.97;;;;;;;-144.47;65.46;53350.69;4984013;28;20108;-67
2022/07/09 01:48:38;;;;;;;10.32;4.18;;;;;;;-144.47;65.13;53378.50;4977383;28;20034;-69
2022/07/09 01:51:04;;;;;;;10.45;3.63;;;;;;;-144.47;65.34;53344.72;4987427;28;20041;-67
2022/07/09 01:53:29;;;;;;;10.02;4.60;;;;;;;-144.47;65.39;53350.69;4982893;28;20027;-66
2022/07/09 01:55:55;;;;;;;9.02;4.07;;;;;;;-144.47;65.59;53364.59;4980739;28;20451;-66
2022/07/09 01:58:20;;;;;;;8.48;3.60;;;;;;;-144.47;65.86;53360.63;4986136;28;20105;-65
2022/07/09 02:00:46;;;;;;;9.60;3.70;;;;;;;-144.47;65.99;53352.66;4984288;28;20080;-66
2022/07/09 02:03:12;;;;;;;9.70;3.60;;;;;;;-144.47;65.91;53402.31;4987171;28;20392;-66
2022/07/09 02:05:37;;;;;;;14.65;3.97;;;;;;;-144.47;65.93;53358.63;4997173;23;20101;-67
2022/07/09 02:08:03;;;;;;;11.32;3.95;;;;;;;-144.47;66.03;53410.28;4980982;28;20104;-67
2022/07/09 02:10:32;;;;;;;12.48;3.92;;;;;;;-144.47;66.05;53366.56;4996686;28;20026;-67
2022/07/09 02:12:57;;;;;;;10.02;4.63;;;;;;;-144.47;66.23;53370.53;4971105;28;20033;-64
2022/07/09 02:15:23;;;;;;;10.48;4.00;;;;;;;-144.47;66.48;53370.53;4978767;28;20026;-69
2022/07/09 02:17:48;;;;;;;11.70;4.25;;;;;;;-144.47;66.77;53414.25;4975476;28;20097;-66
2022/07/09 02:20:14;;;;;;;12.38;4.88;;;;;;;-144.47;67.25;53350.69;4979093;28;20496;-69
2022/07/09 02:22:39;;;;;;;18.27;4.40;;;;;;;-144.47;67.53;53360.63;4972207;28;20105;-66
2022/07/09 02:25:05;;;;;;;12.95;4.40;;;;;;;-144.47;67.91;53342.72;4978825;28;20201;-69
2022/07/09 02:27:30;;;;;;;8.57;5.13;;;;;;;-144.47;68.08;53378.50;4970413;28;20022;-67
2022/07/09 02:29:56;;;;;;;14.63;5.00;;;;;;;-144.47;67.98;53404.31;4978168;28;20034;-65
2022/07/09 02:32:21;;;;;;;11.93;4.72;;;;;;;-144.47;67.61;53352.66;4976872;28;20121;-66
2022/07/09 02:34:46;;;;;;;16.45;5.90;;;;;;;-144.47;67.85;53408.28;4982526;28;20023;-65
2022/07/09 02:37:12;;;;;;;9.23;4.88;;;;;;;-144.47;67.77;53360.63;4968893;28;20608;-65
2022/07/09 02:39:37;;;;;;;19.98;5.05;;;;;;;-144.47;67.91;53348.69;4981107;28;20027;-69
2022/07/09 02:42:03;;;;;;;14.15;4.80;;;;;;;-144.47;68.11;53366.56;4970563;28;20035;-69
2022/07/09 02:44:29;;;;;;;14.15;4.80;;;;;;;-144.47;68.45;53420.22;4983236;28;20048;-67
2022/07/09 02:46:54;;;;;;;19.67;4.82;;;;;;;-144.47;68.77;53392.41;4980031;28;20026;-67
2022/07/09 02:49:21;;;;;;;10.57;4.80;;;;;;;-144.47;69.00;53418.22;4977356;28;20022;-67
2022/07/09 02:51:46;;;;;;;15.88;5.30;;;;;;;-144.47;69.08;53334.78;4970019;28;20094;-67
2022/07/09 02:54:12;;;;;;;16.15;4.95;;;;;;;-144.47;69.12;53348.69;4969994;28;20170;-69
2022/07/09 02:56:37;;;;;;;23.35;5.40;;;;;;;-144.47;69.13;53414.25;4982356;28;20057;-66
2022/07/09 02:59:02;;;;;;;18.55;5.35;;;;;;;-144.47;69.29;53408.28;4983227;28;20393;-68
2022/07/09 03:01:28;;;;;;;11.45;4.75;;;;;;;-144.47;69.44;53358.63;4969874;28;20595;-66
2022/07/09 03:03:53;;;;;;;16.60;5.32;;;;;;;-144.47;69.50;53392.41;4969596;28;20018;-67
2022/07/09 03:06:19;;;;;;;17.63;6.05;;;;;;;-144.47;69.55;53374.50;4974011;28;20548;-65
2022/07/09 03:08:44;;;;;;;17.05;6.30;;;;;;;-144.47;69.79;53404.31;4970007;28;20479;-64
2022/07/09 03:11:10;;;;;;;28.17;6.07;;;;;;;-144.47;70.02;53386.44;4970081;28;20027;-68
2022/07/09 03:13:36;;;;;;;18.90;6.70;;;;;;;-144.47;70.22;53422.19;4984664;28;20030;-66
2022/07/09 03:16:06;;;;;;;16.67;5.25;;;;;;;-144.47;69.99;53356.63;4977148;28;20026;-65
2022/07/09 03:18:31;;;;;;;15.30;5.38;;;;;;;-144.47;69.88;53374.50;4987968;28;20093;-68
2022/07/09 03:20:56;;;;;;;9.00;4.95;;;;;;;-144.47;69.89;53374.50;4977186;28;20026;-67
2022/07/09 03:23:22;;;;;;;17.13;6.03;;;;;;;-144.47;69.77;53396.38;4987779;28;20045;-66
2022/07/09 03:25:48;;;;;;;10.70;5.63;;;;;;;-144.47;69.59;53354.66;4984566;28;20093;-66
2022/07/09 03:28:13;;;;;;;15.68;5.75;;;;;;;-144.47;69.57;53384.44;4976394;28;20117;-66
2022/07/09 03:30:38;;;;;;;19.10;7.18;;;;;;;-144.47;69.39;53404.31;4985844;28;20045;-67
2022/07/09 03:33:04;;;;;;;16.50;6.25;;;;;;;-144.47;69.22;53382.47;4975646;28;20121;-65
2022/07/09 03:35:29;;;;;;;13.00;6.38;;;;;;;-144.47;69.38;53374.50;4987493;28;20121;-66
2022/07/09 03:37:54;;;;;;;12.48;6.53;;;;;;;-144.47;69.47;53392.41;4976954;28;20434;-65
2022/07/09 03:40:20;;;;;;;18.00;7.28;;;;;;;-144.47;69.52;53360.63;4969661;28;20647;-67
2022/07/09 03:42:45;;;;;;;14.80;6.47;;;;;;;-144.47;69.58;53418.22;4969983;28;20480;-63
2022/07/09 03:45:11;;;;;;;16.52;7.05;;;;;;;-144.47;69.28;53384.44;4969556;28;20066;-66
2022/07/09 03:47:36;;;;;;;18.63;7.47;;;;;;;-144.47;69.12;53398.34;4981316;28;20164;-66
2022/07/09 03:50:02;;;;;;;14.88;6.93;;;;;;;-144.47;69.22;53376.50;4970563;28;20151;-67
2022/07/09 03:52:28;;;;;;;18.55;7.50;;;;;;;-144.47;69.20;53360.63;4980692;28;20340;-66
2022/07/09 03:54:53;;;;;;;21.17;7.22;;;;;;;-144.47;69.26;53376.50;5003425;28;20105;-66
2022/07/09 03:57:18;;;;;;;20.13;7.55;;;;;;;-144.47;69.10;53390.41;4975512;28;20106;-64
2022/07/09 03:59:44;;;;;;;21.02;7.30;;;;;;;-144.47;68.80;53358.63;4968126;28;20117;-65
2022/07/09 04:02:09;;;;;;;18.75;7.03;;;;;;;-144.47;68.62;53386.44;4969090;28;20102;-66
2022/07/09 04:04:34;;;;;;;25.52;9.05;;;;;;;-144.47;68.72;53372.53;4983911;28;20026;-67
2022/07/09 04:07:00;;;;;;;11.65;6.75;;;;;;;-144.47;68.30;53364.59;4976992;28;20042;-67
2022/07/09 04:09:25;;;;;;;15.70;6.65;;;;;;;-144.47;68.59;53376.50;4984613;28;20038;-65
2022/07/09 04:11:50;;;;;;;13.13;5.57;;;;;;;-144.47;68.62;53406.31;4986737;28;20022;-66
2022/07/09 04:14:16;;;;;;;10.80;5.93;;;;;;;-144.47;68.66;53430.13;4986392;28;20430;-66
2022/07/09 04:16:41;;;;;;;19.40;6.57;;;;;;;-144.47;68.90;53410.28;4987652;28;20084;-65
2022/07/09 04:19:08;;;;;;;15.48;6.70;;;;;;;-144.47;69.04;53382.47;4974399;28;20023;-65
2022/07/09 04:21:33;;;;;;;13.55;6.35;;;;;;;-144.47;68.99;53412.25;4988088;28;20407;-66
2022/07/09 04:23:59;;;;;;;14.95;7.38;;;;;;;-144.47;68.90;53366.56;4986659;28;20526;-66
2022/07/09 04:26:24;;;;;;;17.67;6.65;;;;;;;-144.47;68.34;53418.22;4987958;28;20053;-66
2022/07/09 04:28:49;;;;;;;13.93;6.20;;;;;;;-144.47;68.08;53398.34;4973217;28;20026;-67
2022/07/09 04:31:15;;;;;;;16.85;5.88;;;;;;;-144.47;67.91;53384.44;4977373;28;20030;-66
2022/07/09 04:33:44;;;;;;;27.35;6.53;;;;;;;-144.47;67.46;53408.28;4976010;28;20031;-64
2022/07/09 04:36:10;;;;;;;;;;;;;;;-144.47;67.46;53378.50;4981431;28;20034;-67
2022/07/09 04:38:35;;;;;;;18.33;5.70;;;;;;;-144.47;67.43;53378.50;4971889;28;20260;-66
2022/07/09 04:41:01;;;;;;;26.67;6.93;;;;;;;-144.47;67.04;53386.44;4981374;28;20208;-67
2022/07/09 04:43:26;;;;;;;22.35;6.10;;;;;;;-144.47;67.25;53364.59;4978264;28;20375;-66
2022/07/09 04:45:51;;;;;;;15.98;5.57;;;;;;;-144.47;66.96;53374.50;4981273;28;20029;-64
2022/07/09 04:48:17;;;;;;;24.33;6.07;;;;;;;-144.47;66.90;53350.69;4981516;28;20157;-68
2022/07/09 04:50:42;;;;;;;20.02;7.25;;;;;;;-144.47;67.11;53336.78;4971978;28;20404;-65
2022/07/09 04:53:07;;;;;;;20.20;6.57;;;;;;;-144.47;67.07;53420.22;4971445;28;20019;-67
2022/07/09 04:55:33;;;;;;;22.55;5.97;;;;;;;-144.47;67.21;53392.41;4979164;28;20073;-65
2022/07/09 04:57:58;;;;;;;27.13;7.38;;;;;;;-144.47;67.24;53388.41;4984528;28;20050;-67
2022/07/09 05:00:23;;;;;;;26.98;7.05;;;;;;;-144.47;67.03;53368.56;4981297;28;20022;-64
2022/07/09 05:02:49;;;;;;;19.23;6.63;;;;;;;-144.47;66.88;53372.53;4987645;28;20397;-67
2022/07/09 05:05:14;;;;;;;16.80;6.10;;;;;;;-144.47;66.90;53346.72;4981827;28;20040;-66
2022/07/09 05:07:43;;;;;;;12.60;5.95;;;;;;;-144.47;66.56;53372.53;4977895;28;20030;-67
2022/07/09 05:10:09;;;;;;;19.38;6.25;;;;;;;-144.47;66.31;53356.63;4991355;28;20113;-65
2022/07/09 05:12:35;;;;;;;16.98;7.10;;;;;;;-144.47;66.05;53320.88;4978093;28;20045;-70
2022/07/09 05:15:00;;;;;;;24.08;6.30;;;;;;;-144.47;66.14;53392.41;4980954;28;20022;-65
2022/07/09 05:17:26;;;;;;;29.30;7.53;;;;;;;-144.47;66.01;53390.41;4987739;28;20026;-67
2022/07/09 05:19:51;;;;;;;19.58;7.30;;;;;;;-144.47;65.86;53326.84;4988785;28;20503;-63
2022/07/09 05:22:16;;;;;;;24.08;7.50;;;;;;;-144.47;65.61;53384.44;4977928;28;20493;-67
2022/07/09 05:24:42;;;;;;;23.52;8.27;;;;;;;-144.47;65.10;53348.69;4980559;28;20109;-67
2022/07/09 05:27:09;;;;;;;27.23;8.27;;;;;;;-144.47;64.97;53342.72;4978922;28;20030;-66
2022/07/09 05:29:35;;;;;;;25.90;6.57;;;;;;;-144.47;64.65;53372.53;4976113;28;20023;-65
2022/07/09 05:32:00;;;;;;;27.55;6.88;;;;;;;-144.47;64.87;53352.66;4985115;28;20033;-66
2022/07/09 05:34:25;;;;;;;34.10;8.48;;;;;;;-144.47;64.54;53372.53;4982122;28;20063;-67
2022/07/09 05:36:57;;;;;;;26.55;7.30;;;;;;;-144.47;64.28;53370.53;4974165;28;20100;-69
2022/07/09 05:39:24;;;;;;;20.38;7.68;;;;;;;-144.47;64.36;53336.78;4980327;28;20043;-65
2022/07/09 05:41:50;;;;;;;27.48;7.45;;;;;;;-144.47;64.77;53390.41;4986085;28;20031;-68
2022/07/09 05:44:15;;;;;;;23.80;8.00;;;;;;;-144.47;64.98;53328.81;4981299;28;20184;-66
2022/07/09 05:46:41;;;;;;;25.70;6.35;;;;;;;-144.47;64.79;53350.69;4972714;28;20107;-64
2022/07/09 05:49:07;;;;;;;40.90;8.13;;;;;;;-144.47;64.34;53332.81;4971090;28;20030;-68
2022/07/09 05:51:33;;;;;;;19.75;7.53;;;;;;;-144.47;64.27;53356.63;4989000;28;20045;-67
2022/07/09 05:53:58;;;;;;;34.83;8.52;;;;;;;-144.47;64.32;53370.53;4979252;28;20026;-66
2022/07/09 05:56:24;;;;;;;18.23;7.85;;;;;;;-144.47;64.23;53374.50;4987864;28;20030;-66
2022/07/09 05:58:49;;;;;;;28.80;7.97;;;;;;;-144.47;64.57;53334.78;4978953;28;20121;-65
2022/07/09 06:01:15;;;;;;;28.02;9.10;;;;;;;-144.47;64.62;53348.69;4985903;28;20064;-69
2022/07/09 06:03:40;;;;;;;40.22;8.73;;;;;;;-144.47;64.94;53346.72;4979564;28;20030;-66
2022/07/09 06:06:06;;;;;;;34.05;7.18;;;;;;;-144.47;64.65;53334.78;4980826;28;20114;-71
2022/07/09 06:08:33;;;;;;;25.48;8.25;;;;;;;-144.47;64.05;53368.56;4981779;28;20133;-65
2022/07/09 06:10:58;;;;;;;31.65;9.32;;;;;;;-144.47;63.85;53342.72;4989957;28;20614;-67
2022/07/09 06:13:24;;;;;;;26.42;8.35;;;;;;;-144.47;63.96;53362.59;4978138;28;20023;-67
2022/07/09 06:15:50;;;;;;;20.50;9.77;;;;;;;-144.47;63.55;53378.50;4970880;28;20109;-65
2022/07/09 06:18:16;;;;;;;31.08;8.95;;;;;;;-144.47;63.09;53336.78;4970417;28;20084;-66
2022/07/09 06:20:41;;;;;;;28.27;9.82;;;;;;;-144.47;63.48;53358.63;4976087;28;20049;-65
2022/07/09 06:23:07;;;;;;;32.00;9.75;;;;;;;-144.47;63.20;53332.81;4977951;28;20066;-68
2022/07/09 06:25:32;;;;;;;40.75;11.73;;;;;;;-144.47;63.60;53348.69;4974304;28;20383;-65
2022/07/09 06:27:57;;;;;;;37.63;11.38;;;;;;;-144.47;63.55;53360.63;4989776;28;20080;-66
2022/07/09 06:30:23;;;;;;;36.83;10.23;;;;;;;-144.47;63.51;53404.31;4973353;28;20072;-67
2022/07/09 06:32:48;;;;;;;21.83;10.80;;;;;;;-144.47;63.42;53372.53;4970933;28;20022;-65
2022/07/09 06:35:13;;;;;;;38.78;11.43;;;;;;;-144.47;63.28;53358.63;4983507;28;20030;-66
2022/07/09 06:37:39;;;;;;;30.52;11.43;;;;;;;-144.47;63.55;53384.44;4970194;28;20038;-65
2022/07/09 06:40:05;;;;;;;44.55;11.10;;;;;;;-144.47;63.57;53352.66;4974694;28;20054;-66
2022/07/09 06:42:31;;;;;;;31.10;11.13;;;;;;;-144.47;63.31;53334.78;4975171;28;20030;-68
2022/07/09 06:44:56;;;;;;;26.83;11.05;;;;;;;-144.47;63.21;53368.56;4988735;28;20026;-66
2022/07/09 06:47:21;;;;;;;27.30;11.93;;;;;;;-144.47;62.26;53368.56;4976462;28;20015;-67
2022/07/09 06:49:47;;;;;;;30.10;12.48;;;;;;;-144.47;61.81;53338.75;4973523;28;20480;-68
2022/07/09 06:52:12;;;;;;;27.95;10.80;;;;;;;-144.47;61.64;53368.56;4969128;28;20034;-67
2022/07/09 06:54:38;;;;;;;37.47;12.18;;;;;;;-144.47;60.59;53342.72;4982784;28;20598;-66
2022/07/09 06:57:04;;;;;;;29.25;11.75;;;;;;;-144.47;60.57;53332.81;4976730;28;20024;-66
2022/07/09 06:59:29;;;;;;;26.10;12.23;;;;;;;-144.47;60.02;53364.59;4974623;28;20022;-68
2022/07/09 07:01:55;;;;;;;32.83;12.32;;;;;;;-144.47;59.65;53350.69;4973180;28;20042;-69
2022/07/09 07:04:20;;;;;;;26.67;11.18;;;;;;;-144.47;59.69;53306.97;4981842;28;20036;-69
2022/07/09 07:06:48;;;;;;;28.98;11.55;;;;;;;-144.47;58.72;53348.69;4981122;28;20035;-68
2022/07/09 07:09:15;;;;;;;28.13;11.05;;;;;;;-144.47;58.79;53338.75;4987328;28;20078;-66
2022/07/09 07:11:40;;;;;;;26.48;11.35;;;;;;;-144.47;59.37;53344.72;4980076;28;20443;-67
2022/07/09 07:14:06;;;;;;;27.48;10.93;;;;;;;-144.47;59.13;53370.53;4978963;28;20049;-67
2022/07/09 07:16:31;;;;;;;24.00;10.07;;;;;;;-144.47;59.00;53324.84;4988259;28;20046;-66
2022/07/09 07:18:57;;;;;;;23.20;9.43;;;;;;;-144.47;58.75;53340.75;4974020;28;20035;-65
2022/07/09 07:21:22;;;;;;;32.30;11.88;;;;;;;-144.47;58.93;53322.88;4975967;28;20018;-65
2022/07/09 07:23:48;;;;;;;23.00;9.13;;;;;;;-144.47;59.41;53332.81;4986689;28;20491;-67
2022/07/09 07:26:13;;;;;;;21.92;10.35;;;;;;;-144.47;59.81;53318.91;4974736;28;20023;-67
2022/07/09 07:28:38;;;;;;;40.55;11.65;;;;;;;-144.47;60.02;53352.66;4972607;28;20466;-67
2022/07/09 07:31:04;;;;;;;28.33;10.95;;;;;;;-144.47;60.29;53332.81;4976302;28;20399;-69
2022/07/09 07:33:29;;;;;;;23.50;9.98;;;;;;;-144.47;59.92;53364.59;4980818;28;20030;-66
2022/07/09 07:35:54;;;;;;;27.45;9.00;;;;;;;-144.47;59.22;53308.97;4979240;28;20475;-68
2022/07/09 07:38:20;;;;;;;37.20;10.48;;;;;;;-144.47;59.02;53334.78;4972003;28;20039;-66
2022/07/09 07:40:45;;;;;;;35.42;10.98;;;;;;;-144.47;59.27;53330.81;5003620;28;20032;-66
2022/07/09 07:43:11;;;;;;;22.38;9.18;;;;;;;-144.47;59.40;53336.78;4984813;28;20041;-67
2022/07/09 07:45:36;;;;;;;22.63;10.27;;;;;;;-144.47;59.72;53314.91;4969071;28;20026;-66
2022/07/09 07:48:02;;;;;;;27.60;11.23;;;;;;;-144.47;59.74;53338.75;4982077;28;20031;-66
2022/07/09 07:50:27;;;;;;;20.45;9.55;;;;;;;-144.47;59.60;53340.75;4976753;28;20078;-66
2022/07/09 07:52:53;;;;;;;21.65;9.18;;;;;;;-144.47;58.85;53338.75;4973067;28;20038;-68
2022/07/09 07:55:18;;;;;;;26.20;9.30;;;;;;;-144.47;58.60;53352.66;4977240;28;20078;-70
2022/07/09 07:57:43;;;;;;;19.98;8.68;;;;;;;-144.47;57.81;53366.56;5000687;28;20041;-69
2022/07/09 08:00:09;;;;;;;30.45;12.45;;;;;;;-144.47;57.50;53324.84;4977189;28;20057;-67
2022/07/09 08:02:35;;;;;;;23.27;8.55;;;;;;;-144.47;56.62;53346.72;4973442;28;20531;-67
2022/07/09 08:05:00;;;;;;;23.48;8.73;;;;;;;-144.47;56.79;53332.81;4989316;23;20050;-67
2022/07/09 08:07:26;;;;;;;22.52;8.60;;;;;;;-144.47;56.57;53308.97;5005181;28;20030;-66
2022/07/09 08:09:53;;;;;;;23.08;8.43;;;;;;;-144.47;55.92;53344.72;5002556;28;20348;-65
2022/07/09 08:12:18;;;;;;;20.88;7.40;;;;;;;-144.47;56.04;53320.88;4981065;28;20089;-64
2022/07/09 08:14:44;;;;;;;23.02;8.48;;;;;;;-144.47;55.22;53291.09;4999198;28;20026;-65
2022/07/09 08:17:10;;;;;;;27.85;8.15;;;;;;;-144.47;55.63;53320.88;4982952;28;20476;-66
2022/07/09 08:19:35;;;;;;;24.27;9.25;;;;;;;-144.47;55.57;53340.75;4988708;28;20130;-64
2022/07/09 08:22:01;;;;;;;24.00;8.93;;;;;;;-144.47;55.02;53336.78;4974918;28;20026;-65
2022/07/09 08:24:27;;;;;;;27.77;9.43;;;;;;;-144.47;54.94;53285.13;4985047;28;20472;-62
2022/07/09 08:26:52;;;;;;;31.60;8.25;;;;;;;-144.47;55.26;53320.88;4971070;28;20023;-63
2022/07/09 08:29:18;;;;;;;27.20;9.70;;;;;;;-144.47;55.22;53344.72;4974017;28;20050;-64
2022/07/09 08:31:43;;;;;;;19.40;8.25;;;;;;;-144.47;55.67;53330.81;4978482;28;20025;-66
2022/07/09 08:34:08;;;;;;;24.27;8.93;;;;;;;-144.47;55.71;53322.88;4975987;28;20023;-63
2022/07/09 08:36:34;;;;;;;22.45;8.27;;;;;;;-144.47;56.47;53330.81;4976000;28;20526;-61
2022/07/09 08:38:59;;;;;;;17.80;8.40;;;;;;;-144.47;56.63;53338.75;4980268;28;20455;-64
2022/07/09 08:41:24;;;;;;;21.52;8.23;;;;;;;-144.47;57.21;53320.88;4971202;28;20023;-62
2022/07/09 08:43:51;;;;;;;20.98;8.38;;;;;;;-144.47;57.46;53318.91;4975766;28;20191;-64
2022/07/09 08:46:18;;;;;;;20.80;9.23;;;;;;;-144.47;57.47;53316.91;4971719;28;20039;-63
2022/07/09 08:48:44;;;;;;;31.77;9.68;;;;;;;-144.47;57.36;53301.03;4982528;28;20018;-64
2022/07/09 08:51:10;;;;;;;20.85;8.23;;;;;;;-144.47;57.51;53310.94;4970128;28;20083;-66
2022/07/09 08:53:40;;;;;;;26.48;8.32;;;;;;;-144.47;56.96;53324.84;4971565;28;20029;-63
2022/07/09 08:56:06;;;;;;;21.60;9.13;;;;;;;-144.47;56.78;53310.94;4969093;28;20498;-64
2022/07/09 08:58:32;;;;;;;23.85;8.82;;;;;;;-144.47;56.96;53295.06;4967237;28;20048;-65
2022/07/09 09:00:58;;;;;;;15.82;8.50;;;;;;;-144.47;56.92;53306.97;4972649;28;20034;-65
2022/07/09 09:03:24;;;;;;;22.05;8.13;;;;;;;-144.47;56.90;53356.63;4971616;28;20026;-68
2022/07/09 09:06:04;;;;;;;22.13;8.18;;;;;;;-144.47;56.84;53301.03;4972451;28;20105;-65
2022/07/09 09:08:41;;;;;;;19.13;7.63;;;;;;;-144.47;55.84;53352.66;4972254;28;20027;-65
2022/07/09 09:11:15;;;;;;;20.83;7.70;;;;;;;-144.47;54.95;53303.00;4962979;28;20045;-68
2022/07/09 09:13:42;;;;;;;20.20;7.10;;;;;;;-144.47;54.90;53305.00;4991065;28;20104;-66
2022/07/09 09:16:09;;;;;;;26.35;8.00;;;;;;;-144.47;55.15;53320.88;4975396;28;20069;-66
2022/07/09 09:18:46;;;;;;;14.70;7.07;;;;;;;-144.47;55.55;53352.66;4974492;28;20396;-66
2022/07/09 09:21:12;;;;;;;28.27;8.00;;;;;;;-144.47;55.60;53324.84;4971566;28;20023;-65
2022/07/09 09:23:59;;;;;;;14.85;7.18;;;;;;;-144.47;55.26;53308.97;4960166;28;20059;-64
2022/07/09 09:26:27;;;;;;;26.98;9.77;;;;;;;-144.47;55.65;53305.00;4970823;28;20023;-65
2022/07/09 09:29:01;;;;;;;16.00;8.57;;;;;;;-144.47;55.82;53332.81;4977769;28;20033;-66
2022/07/09 09:31:36;;;;;;;18.73;8.45;;;;;;;-144.47;55.73;53326.84;4962852;28;20037;-64
2022/07/09 09:34:04;;;;;;;18.65;8.80;;;;;;;-144.47;55.72;53271.22;4963210;28;20505;-67
2022/07/09 09:36:32;;;;;;;20.17;8.80;;;;;;;-144.47;55.11;53297.03;4969001;28;20131;-65
2022/07/09 09:39:21;;;;;;;23.85;8.90;;;;;;;-144.47;55.30;53328.81;4969708;28;20504;-64
2022/07/09 09:41:50;;;;;;;16.45;7.47;;;;;;;-144.47;54.37;53295.06;4967622;28;20027;-64
2022/07/09 09:44:18;;;;;;;20.02;7.18;;;;;;;-144.47;53.97;53305.00;4973748;28;20495;-67
2022/07/09 09:46:45;;;;;;;16.53;6.00;;;;;;;-144.47;53.51;53299.03;4979091;28;20027;-66
2022/07/09 09:49:14;;;;;;;19.50;6.43;;;;;;;-144.47;53.24;53316.91;4992878;28;20284;-66
2022/07/09 09:51:47;;;;;;;12.48;5.90;;;;;;;-144.47;52.71;53316.91;4976947;28;20022;-67
2022/07/09 09:54:13;;;;;;;12.02;6.55;;;;;;;-144.47;51.85;53281.16;4972825;28;20105;-67
2022/07/09 09:56:39;;;;;;;17.73;6.57;;;;;;;-144.47;52.12;53297.03;4972418;28;20033;-65
2022/07/09 09:59:05;;;;;;;20.60;6.40;;;;;;;-144.47;51.82;53293.06;4972529;28;20212;-67
2022/07/09 10:01:31;;;;;;;21.67;6.80;;;;;;;-144.47;51.92;53328.81;5001910;28;20026;-64
2022/07/09 10:03:57;;;;;;;16.42;7.18;;;;;;;-144.47;51.93;53320.88;4991578;28;20077;-67
2022/07/09 10:06:23;;;;;;;16.27;6.13;;;;;;;-144.47;51.42;53326.84;4973251;28;20031;-65
2022/07/09 10:08:48;;;;;;;10.20;5.70;;;;;;;-144.47;50.99;53299.03;4968730;28;20114;-67
2022/07/09 10:11:14;;;;;;;16.73;5.95;;;;;;;-144.47;50.38;53271.22;4975155;28;20493;-65
2022/07/09 10:13:59;;;;;;;11.65;6.32;;;;;;;-144.47;50.40;53316.91;4960781;28;20015;-67
2022/07/09 10:16:33;;;;;;;13.27;5.72;;;;;;;-144.47;50.33;53291.09;4971499;28;20120;-67
2022/07/09 10:18:59;;;;;;;10.23;4.65;;;;;;;-144.47;50.16;53293.06;4972161;28;20090;-67
2022/07/09 10:21:42;;;;;;;18.00;6.13;;;;;;;-144.47;50.17;53287.13;4999958;28;20432;-64
2022/07/09 10:24:11;;;;;;;11.85;5.35;;;;;;;-144.47;50.42;53293.06;4972563;28;20034;-63
2022/07/09 10:26:44;;;;;;;8.35;4.50;;;;;;;-144.47;49.86;53318.91;4975871;28;20057;-66
2022/07/09 10:29:19;;;;;;;10.52;4.65;;;;;;;-144.47;48.93;53320.88;4972520;28;20436;-66
2022/07/09 10:31:47;;;;;;;11.98;4.47;;;;;;;-144.47;48.93;53277.19;4991247;28;20053;-66
2022/07/09 10:34:23;;;;;;;13.35;5.18;;;;;;;-144.47;49.61;53312.94;4990934;28;20644;-66
2022/07/09 10:37:02;;;;;;;17.30;5.03;;;;;;;-144.47;49.68;53306.97;4972645;28;20473;-68
2022/07/09 10:39:29;;;;;;;10.43;4.32;;;;;;;-144.47;49.28;53305.00;4974262;28;20675;-68
2022/07/09 10:42:05;;;;;;;9.35;4.63;;;;;;;-144.47;49.13;53293.06;4991550;28;20109;-65
2022/07/09 10:44:39;;;;;;;13.20;4.68;;;;;;;-144.47;49.38;53251.34;4966563;28;20026;-67
2022/07/09 10:47:05;;;;;;;11.85;4.82;;;;;;;-144.47;48.93;53285.13;4969631;28;20054;-65
2022/07/09 10:49:34;;;;;;;6.82;3.05;;;;;;;-144.47;47.44;53253.34;4974328;28;20125;-68
2022/07/09 10:51:59;;;;;;;;;;;;;;;-144.47;48.54;53310.94;4966829;28;20034;-64
2022/07/09 10:54:26;;;;;;;10.20;4.10;;;;;;;-144.47;48.83;53277.19;4970270;28;19921;-65
2022/07/09 10:56:53;;;;;;;9.32;3.90;;;;;;;-144.47;48.47;53295.06;4966976;28;20034;-66
2022/07/09 10:59:19;;;;;;;8.30;4.05;;;;;;;-144.47;47.89;53285.13;4965931;28;20515;-68
2022/07/09 11:01:44;;;;;;;9.88;5.80;;;;;;;-144.47;47.69;53303.00;4963551;28;20027;-63
2022/07/09 11:04:12;;;;;;;8.80;4.05;;;;;;;-144.47;48.26;53277.19;4964157;28;20586;-66
2022/07/09 11:06:47;;;;;;;7.93;2.67;;;;;;;-144.47;45.95;53291.09;4969035;28;20027;-64